sensor_id;sensor_type;location;lat;lon;timestamp;P1;durP1;ratioP1;P2;durP2;ratioP2
6358;SDS011;3212;51.460;11.868;2023-04-10T00:00:19;29.10;;;16.67;;
6358;SDS011;3212;51.460;11.868;2023-04-10T00:03:42;28.98;;;14.87;;
6358;SDS011;3212;51.460;11.868;2023-04-10T00:07:04;31.80;;;16.90;;
6358;SDS011;3212;51.460;11.868;2023-04-10T00:10:27;28.40;;;15.73;;
6358;SDS011;3212;51.460;11.868;2023-04-10T00:13:49;27.43;;;15.27;;
6358;SDS011;3212;51.460;11.868;2023-04-10T00:17:11;27.37;;;15.37;;
6358;SDS011;3212;51.460;11.868;2023-04-10T00:20:35;27.33;;;16.20;;
6358;SDS011;3212;51.460;11.868;2023-04-10T00:23:57;32.93;;;15.87;;
6358;SDS011;3212;51.460;11.868;2023-04-10T00:27:20;32.60;;;17.10;;
6358;SDS011;3212;51.460;11.868;2023-04-10T00:30:42;32.37;;;16.47;;
6358;SDS011;3212;51.460;11.868;2023-04-10T00:34:05;32.43;;;16.17;;
6358;SDS011;3212;51.460;11.868;2023-04-10T00:37:27;32.93;;;17.40;;
6358;SDS011;3212;51.460;11.868;2023-04-10T00:40:50;27.57;;;16.17;;
6358;SDS011;3212;51.460;11.868;2023-04-10T00:44:13;32.13;;;17.00;;
6358;SDS011;3212;51.460;11.868;2023-04-10T00:47:36;35.37;;;17.47;;
6358;SDS011;3212;51.460;11.868;2023-04-10T00:50:58;34.47;;;17.80;;
6358;SDS011;3212;51.460;11.868;2023-04-10T00:54:21;35.10;;;17.87;;
6358;SDS011;3212;51.460;11.868;2023-04-10T00:57:44;36.27;;;18.60;;
6358;SDS011;3212;51.460;11.868;2023-04-10T01:01:06;32.80;;;17.27;;
6358;SDS011;3212;51.460;11.868;2023-04-10T01:04:28;30.70;;;16.77;;
6358;SDS011;3212;51.460;11.868;2023-04-10T01:15:10;31.83;;;16.80;;
6358;SDS011;3212;51.460;11.868;2023-04-10T01:18:36;29.90;;;15.97;;
6358;SDS011;3212;51.460;11.868;2023-04-10T01:21:58;32.60;;;16.50;;
6358;SDS011;3212;51.460;11.868;2023-04-10T01:25:29;29.37;;;15.40;;
6358;SDS011;3212;51.460;11.868;2023-04-10T01:28:52;31.60;;;16.03;;
6358;SDS011;3212;51.460;11.868;2023-04-10T01:32:15;30.50;;;15.23;;
6358;SDS011;3212;51.460;11.868;2023-04-10T01:35:37;29.60;;;16.02;;
6358;SDS011;3212;51.460;11.868;2023-04-10T01:38:59;34.20;;;16.53;;
6358;SDS011;3212;51.460;11.868;2023-04-10T01:42:21;34.20;;;16.63;;
6358;SDS011;3212;51.460;11.868;2023-04-10T01:45:44;35.23;;;18.00;;
6358;SDS011;3212;51.460;11.868;2023-04-10T01:49:07;33.22;;;17.42;;
6358;SDS011;3212;51.460;11.868;2023-04-10T01:52:30;27.27;;;15.47;;
6358;SDS011;3212;51.460;11.868;2023-04-10T01:55:53;35.03;;;15.80;;
6358;SDS011;3212;51.460;11.868;2023-04-10T01:59:15;32.53;;;15.67;;
6358;SDS011;3212;51.460;11.868;2023-04-10T02:02:38;29.57;;;15.80;;
6358;SDS011;3212;51.460;11.868;2023-04-10T02:06:09;32.40;;;16.30;;
6358;SDS011;3212;51.460;11.868;2023-04-10T02:09:35;31.53;;;15.77;;
6358;SDS011;3212;51.460;11.868;2023-04-10T02:13:04;30.83;;;16.17;;
6358;SDS011;3212;51.460;11.868;2023-04-10T02:16:22;33.40;;;16.97;;
6358;SDS011;3212;51.460;11.868;2023-04-10T02:19:46;32.17;;;16.90;;
6358;SDS011;3212;51.460;11.868;2023-04-10T02:23:08;38.97;;;17.17;;
6358;SDS011;3212;51.460;11.868;2023-04-10T02:30:09;32.03;;;16.65;;
6358;SDS011;3212;51.460;11.868;2023-04-10T02:33:31;27.50;;;15.07;;
6358;SDS011;3212;51.460;11.868;2023-04-10T02:36:54;34.72;;;16.92;;
6358;SDS011;3212;51.460;11.868;2023-04-10T02:40:17;31.13;;;16.93;;
6358;SDS011;3212;51.460;11.868;2023-04-10T02:43:39;31.77;;;16.30;;
6358;SDS011;3212;51.460;11.868;2023-04-10T02:47:02;34.43;;;17.13;;
6358;SDS011;3212;51.460;11.868;2023-04-10T02:50:24;31.10;;;16.50;;
6358;SDS011;3212;51.460;11.868;2023-04-10T02:53:47;33.80;;;16.77;;
6358;SDS011;3212;51.460;11.868;2023-04-10T02:57:10;33.50;;;17.20;;
6358;SDS011;3212;51.460;11.868;2023-04-10T03:00:32;34.53;;;17.27;;
6358;SDS011;3212;51.460;11.868;2023-04-10T03:03:55;32.03;;;17.00;;
6358;SDS011;3212;51.460;11.868;2023-04-10T03:07:18;34.63;;;17.03;;
6358;SDS011;3212;51.460;11.868;2023-04-10T03:10:42;31.60;;;16.30;;
6358;SDS011;3212;51.460;11.868;2023-04-10T03:14:03;31.03;;;15.17;;
6358;SDS011;3212;51.460;11.868;2023-04-10T03:17:27;34.53;;;17.00;;
6358;SDS011;3212;51.460;11.868;2023-04-10T03:20:50;31.57;;;16.60;;
6358;SDS011;3212;51.460;11.868;2023-04-10T03:24:13;28.17;;;15.23;;
6358;SDS011;3212;51.460;11.868;2023-04-10T03:27:36;34.47;;;16.23;;
6358;SDS011;3212;51.460;11.868;2023-04-10T03:30:58;30.50;;;16.17;;
6358;SDS011;3212;51.460;11.868;2023-04-10T03:34:20;32.43;;;16.30;;
6358;SDS011;3212;51.460;11.868;2023-04-10T03:37:44;33.27;;;15.57;;
6358;SDS011;3212;51.460;11.868;2023-04-10T03:41:07;30.70;;;15.90;;
6358;SDS011;3212;51.460;11.868;2023-04-10T03:44:29;26.47;;;13.80;;
6358;SDS011;3212;51.460;11.868;2023-04-10T03:47:52;31.70;;;15.30;;
6358;SDS011;3212;51.460;11.868;2023-04-10T03:51:15;27.57;;;15.10;;
6358;SDS011;3212;51.460;11.868;2023-04-10T03:54:37;28.07;;;14.43;;
6358;SDS011;3212;51.460;11.868;2023-04-10T03:58:01;29.23;;;14.67;;
6358;SDS011;3212;51.460;11.868;2023-04-10T04:01:23;30.27;;;15.00;;
6358;SDS011;3212;51.460;11.868;2023-04-10T04:04:46;34.00;;;14.23;;
6358;SDS011;3212;51.460;11.868;2023-04-10T04:08:09;28.57;;;13.90;;
6358;SDS011;3212;51.460;11.868;2023-04-10T04:11:31;26.40;;;14.17;;
6358;SDS011;3212;51.460;11.868;2023-04-10T04:14:54;27.80;;;15.20;;
6358;SDS011;3212;51.460;11.868;2023-04-10T04:18:17;30.23;;;14.63;;
6358;SDS011;3212;51.460;11.868;2023-04-10T04:21:39;28.50;;;15.10;;
6358;SDS011;3212;51.460;11.868;2023-04-10T04:25:02;31.17;;;15.90;;
6358;SDS011;3212;51.460;11.868;2023-04-10T04:28:25;31.43;;;15.43;;
6358;SDS011;3212;51.460;11.868;2023-04-10T04:31:47;30.37;;;15.97;;
6358;SDS011;3212;51.460;11.868;2023-04-10T04:35:10;28.67;;;14.93;;
6358;SDS011;3212;51.460;11.868;2023-04-10T04:38:33;30.97;;;15.60;;
6358;SDS011;3212;51.460;11.868;2023-04-10T04:41:55;31.77;;;14.47;;
6358;SDS011;3212;51.460;11.868;2023-04-10T04:45:17;32.87;;;15.93;;
6358;SDS011;3212;51.460;11.868;2023-04-10T04:48:41;27.27;;;16.10;;
6358;SDS011;3212;51.460;11.868;2023-04-10T04:52:03;26.23;;;15.07;;
6358;SDS011;3212;51.460;11.868;2023-04-10T04:55:25;30.07;;;16.10;;
6358;SDS011;3212;51.460;11.868;2023-04-10T04:58:48;25.20;;;13.67;;
6358;SDS011;3212;51.460;11.868;2023-04-10T05:02:12;29.23;;;14.70;;
6358;SDS011;3212;51.460;11.868;2023-04-10T05:05:35;31.57;;;16.50;;
6358;SDS011;3212;51.460;11.868;2023-04-10T05:08:58;27.27;;;14.37;;
6358;SDS011;3212;51.460;11.868;2023-04-10T05:12:22;31.90;;;15.93;;
6358;SDS011;3212;51.460;11.868;2023-04-10T05:15:44;29.63;;;15.63;;
6358;SDS011;3212;51.460;11.868;2023-04-10T05:19:07;31.70;;;16.77;;
6358;SDS011;3212;51.460;11.868;2023-04-10T05:22:29;31.80;;;16.60;;
6358;SDS011;3212;51.460;11.868;2023-04-10T05:25:52;31.73;;;16.30;;
6358;SDS011;3212;51.460;11.868;2023-04-10T05:29:15;33.83;;;17.67;;
6358;SDS011;3212;51.460;11.868;2023-04-10T05:32:38;37.13;;;20.03;;
6358;SDS011;3212;51.460;11.868;2023-04-10T05:36:01;39.53;;;20.27;;
6358;SDS011;3212;51.460;11.868;2023-04-10T05:39:23;40.40;;;20.93;;
6358;SDS011;3212;51.460;11.868;2023-04-10T05:42:46;42.77;;;22.00;;
6358;SDS011;3212;51.460;11.868;2023-04-10T05:46:09;37.57;;;20.00;;
6358;SDS011;3212;51.460;11.868;2023-04-10T05:49:32;39.13;;;20.83;;
6358;SDS011;3212;51.460;11.868;2023-04-10T05:52:55;40.90;;;22.07;;
6358;SDS011;3212;51.460;11.868;2023-04-10T05:56:17;37.43;;;19.90;;
6358;SDS011;3212;51.460;11.868;2023-04-10T05:59:39;36.17;;;20.13;;
6358;SDS011;3212;51.460;11.868;2023-04-10T06:03:03;34.63;;;18.20;;
6358;SDS011;3212;51.460;11.868;2023-04-10T06:06:25;31.23;;;17.67;;
6358;SDS011;3212;51.460;11.868;2023-04-10T06:09:47;37.43;;;18.47;;
6358;SDS011;3212;51.460;11.868;2023-04-10T06:13:10;32.07;;;17.97;;
6358;SDS011;3212;51.460;11.868;2023-04-10T06:16:32;35.37;;;19.40;;
6358;SDS011;3212;51.460;11.868;2023-04-10T06:19:55;32.70;;;19.20;;
6358;SDS011;3212;51.460;11.868;2023-04-10T06:23:18;31.07;;;17.20;;
6358;SDS011;3212;51.460;11.868;2023-04-10T06:26:41;32.00;;;18.00;;
6358;SDS011;3212;51.460;11.868;2023-04-10T06:30:04;33.47;;;18.60;;
6358;SDS011;3212;51.460;11.868;2023-04-10T06:33:27;33.97;;;18.73;;
6358;SDS011;3212;51.460;11.868;2023-04-10T06:36:49;36.50;;;19.30;;
6358;SDS011;3212;51.460;11.868;2023-04-10T06:40:12;31.73;;;18.10;;
6358;SDS011;3212;51.460;11.868;2023-04-10T06:43:35;32.20;;;17.93;;
6358;SDS011;3212;51.460;11.868;2023-04-10T06:46:57;32.40;;;17.17;;
6358;SDS011;3212;51.460;11.868;2023-04-10T06:50:19;30.93;;;17.00;;
6358;SDS011;3212;51.460;11.868;2023-04-10T06:53:42;34.23;;;16.87;;
6358;SDS011;3212;51.460;11.868;2023-04-10T06:57:05;32.90;;;17.70;;
6358;SDS011;3212;51.460;11.868;2023-04-10T07:00:27;33.40;;;17.60;;
6358;SDS011;3212;51.460;11.868;2023-04-10T07:03:50;33.73;;;18.20;;
6358;SDS011;3212;51.460;11.868;2023-04-10T07:07:13;29.73;;;17.77;;
6358;SDS011;3212;51.460;11.868;2023-04-10T07:10:35;29.67;;;18.10;;
6358;SDS011;3212;51.460;11.868;2023-04-10T07:13:58;31.57;;;17.43;;
6358;SDS011;3212;51.460;11.868;2023-04-10T07:17:21;36.50;;;20.20;;
6358;SDS011;3212;51.460;11.868;2023-04-10T07:20:43;35.67;;;19.40;;
6358;SDS011;3212;51.460;11.868;2023-04-10T07:24:06;29.43;;;17.20;;
6358;SDS011;3212;51.460;11.868;2023-04-10T07:27:28;30.70;;;19.37;;
6358;SDS011;3212;51.460;11.868;2023-04-10T07:30:51;32.53;;;17.70;;
6358;SDS011;3212;51.460;11.868;2023-04-10T07:34:15;32.65;;;17.80;;
6358;SDS011;3212;51.460;11.868;2023-04-10T07:37:38;33.63;;;18.90;;
6358;SDS011;3212;51.460;11.868;2023-04-10T07:41:00;32.97;;;18.30;;
6358;SDS011;3212;51.460;11.868;2023-04-10T07:44:24;30.90;;;17.63;;
6358;SDS011;3212;51.460;11.868;2023-04-10T07:47:46;28.07;;;16.00;;
6358;SDS011;3212;51.460;11.868;2023-04-10T07:51:08;28.70;;;15.87;;
6358;SDS011;3212;51.460;11.868;2023-04-10T07:54:31;29.43;;;16.93;;
6358;SDS011;3212;51.460;11.868;2023-04-10T07:57:54;32.17;;;16.77;;
6358;SDS011;3212;51.460;11.868;2023-04-10T08:01:16;28.77;;;17.10;;
6358;SDS011;3212;51.460;11.868;2023-04-10T08:04:40;30.00;;;17.90;;
6358;SDS011;3212;51.460;11.868;2023-04-10T08:08:03;31.30;;;18.90;;
6358;SDS011;3212;51.460;11.868;2023-04-10T08:11:27;27.10;;;17.00;;
6358;SDS011;3212;51.460;11.868;2023-04-10T08:14:49;28.83;;;16.97;;
6358;SDS011;3212;51.460;11.868;2023-04-10T08:18:12;29.60;;;16.27;;
6358;SDS011;3212;51.460;11.868;2023-04-10T08:21:35;30.63;;;17.00;;
6358;SDS011;3212;51.460;11.868;2023-04-10T08:24:57;29.73;;;17.20;;
6358;SDS011;3212;51.460;11.868;2023-04-10T08:28:20;29.97;;;17.07;;
6358;SDS011;3212;51.460;11.868;2023-04-10T08:31:42;26.77;;;16.03;;
6358;SDS011;3212;51.460;11.868;2023-04-10T08:35:05;26.40;;;16.58;;
6358;SDS011;3212;51.460;11.868;2023-04-10T08:38:27;24.13;;;15.40;;
6358;SDS011;3212;51.460;11.868;2023-04-10T08:41:50;27.10;;;16.00;;
6358;SDS011;3212;51.460;11.868;2023-04-10T08:45:13;26.00;;;15.50;;
6358;SDS011;3212;51.460;11.868;2023-04-10T08:48:38;24.40;;;14.67;;
6358;SDS011;3212;51.460;11.868;2023-04-10T08:52:07;26.97;;;16.00;;
6358;SDS011;3212;51.460;11.868;2023-04-10T08:55:28;23.83;;;15.30;;
6358;SDS011;3212;51.460;11.868;2023-04-10T08:58:52;23.63;;;14.77;;
6358;SDS011;3212;51.460;11.868;2023-04-10T09:02:15;24.83;;;15.13;;
6358;SDS011;3212;51.460;11.868;2023-04-10T09:05:37;24.30;;;14.17;;
6358;SDS011;3212;51.460;11.868;2023-04-10T09:08:59;22.37;;;14.30;;
6358;SDS011;3212;51.460;11.868;2023-04-10T09:12:23;23.97;;;14.70;;
6358;SDS011;3212;51.460;11.868;2023-04-10T09:19:30;19.63;;;13.10;;
6358;SDS011;3212;51.460;11.868;2023-04-10T09:22:52;25.30;;;13.53;;
6358;SDS011;3212;51.460;11.868;2023-04-10T09:29:44;21.30;;;13.13;;
6358;SDS011;3212;51.460;11.868;2023-04-10T09:36:41;21.43;;;12.40;;
6358;SDS011;3212;51.460;11.868;2023-04-10T09:40:04;19.83;;;12.97;;
6358;SDS011;3212;51.460;11.868;2023-04-10T09:43:27;22.58;;;13.00;;
6358;SDS011;3212;51.460;11.868;2023-04-10T09:46:50;16.80;;;10.90;;
6358;SDS011;3212;51.460;11.868;2023-04-10T09:50:12;17.80;;;11.70;;
6358;SDS011;3212;51.460;11.868;2023-04-10T09:53:47;21.50;;;10.60;;
6358;SDS011;3212;51.460;11.868;2023-04-10T09:56:58;18.00;;;11.57;;
6358;SDS011;3212;51.460;11.868;2023-04-10T10:00:21;19.13;;;11.80;;
6358;SDS011;3212;51.460;11.868;2023-04-10T10:03:43;17.13;;;10.70;;
6358;SDS011;3212;51.460;11.868;2023-04-10T10:07:06;19.17;;;11.50;;
6358;SDS011;3212;51.460;11.868;2023-04-10T10:10:28;16.13;;;10.57;;
6358;SDS011;3212;51.460;11.868;2023-04-10T10:13:51;20.40;;;10.60;;
6358;SDS011;3212;51.460;11.868;2023-04-10T10:17:16;15.60;;;9.70;;
6358;SDS011;3212;51.460;11.868;2023-04-10T10:20:37;16.17;;;10.77;;
6358;SDS011;3212;51.460;11.868;2023-04-10T10:24:00;16.00;;;10.48;;
6358;SDS011;3212;51.460;11.868;2023-04-10T10:27:22;16.97;;;11.50;;
6358;SDS011;3212;51.460;11.868;2023-04-10T10:30:44;15.50;;;9.93;;
6358;SDS011;3212;51.460;11.868;2023-04-10T10:34:07;14.73;;;10.33;;
6358;SDS011;3212;51.460;11.868;2023-04-10T10:37:29;15.90;;;10.70;;
6358;SDS011;3212;51.460;11.868;2023-04-10T10:40:57;12.70;;;7.73;;
6358;SDS011;3212;51.460;11.868;2023-04-10T10:44:27;12.27;;;7.93;;
6358;SDS011;3212;51.460;11.868;2023-04-10T10:47:50;12.90;;;8.30;;
6358;SDS011;3212;51.460;11.868;2023-04-10T10:51:12;12.33;;;8.13;;
6358;SDS011;3212;51.460;11.868;2023-04-10T10:54:35;11.77;;;7.93;;
6358;SDS011;3212;51.460;11.868;2023-04-10T10:57:58;11.37;;;7.50;;
6358;SDS011;3212;51.460;11.868;2023-04-10T11:01:20;10.60;;;7.50;;
6358;SDS011;3212;51.460;11.868;2023-04-10T11:04:43;12.03;;;7.90;;
6358;SDS011;3212;51.460;11.868;2023-04-10T11:08:06;13.60;;;8.50;;
6358;SDS011;3212;51.460;11.868;2023-04-10T11:11:28;11.40;;;7.47;;
6358;SDS011;3212;51.460;11.868;2023-04-10T11:14:56;10.70;;;7.53;;
6358;SDS011;3212;51.460;11.868;2023-04-10T11:18:18;12.13;;;7.80;;
6358;SDS011;3212;51.460;11.868;2023-04-10T11:25:31;12.00;;;7.00;;
6358;SDS011;3212;51.460;11.868;2023-04-10T11:28:45;11.10;;;6.70;;
6358;SDS011;3212;51.460;11.868;2023-04-10T11:32:08;11.20;;;6.87;;
6358;SDS011;3212;51.460;11.868;2023-04-10T11:35:31;13.50;;;7.70;;
6358;SDS011;3212;51.460;11.868;2023-04-10T11:38:58;12.35;;;7.20;;
6358;SDS011;3212;51.460;11.868;2023-04-10T11:42:20;10.60;;;7.73;;
6358;SDS011;3212;51.460;11.868;2023-04-10T11:45:42;12.30;;;8.20;;
6358;SDS011;3212;51.460;11.868;2023-04-10T11:49:05;12.77;;;8.70;;
6358;SDS011;3212;51.460;11.868;2023-04-10T11:52:27;12.23;;;8.03;;
6358;SDS011;3212;51.460;11.868;2023-04-10T11:55:50;11.53;;;8.30;;
6358;SDS011;3212;51.460;11.868;2023-04-10T11:59:13;13.43;;;8.43;;
6358;SDS011;3212;51.460;11.868;2023-04-10T12:06:16;11.03;;;7.47;;
6358;SDS011;3212;51.460;11.868;2023-04-10T12:09:39;11.77;;;7.53;;
6358;SDS011;3212;51.460;11.868;2023-04-10T12:13:02;11.67;;;7.47;;
6358;SDS011;3212;51.460;11.868;2023-04-10T12:16:24;11.80;;;7.70;;
6358;SDS011;3212;51.460;11.868;2023-04-10T12:19:47;10.00;;;6.93;;
6358;SDS011;3212;51.460;11.868;2023-04-10T12:23:10;10.40;;;7.03;;
6358;SDS011;3212;51.460;11.868;2023-04-10T12:26:32;10.70;;;7.47;;
6358;SDS011;3212;51.460;11.868;2023-04-10T12:29:55;11.50;;;7.00;;
6358;SDS011;3212;51.460;11.868;2023-04-10T12:33:20;12.83;;;6.60;;
6358;SDS011;3212;51.460;11.868;2023-04-10T12:36:49;9.10;;;6.87;;
6358;SDS011;3212;51.460;11.868;2023-04-10T12:40:07;11.27;;;7.67;;
6358;SDS011;3212;51.460;11.868;2023-04-10T12:43:32;10.33;;;6.83;;
6358;SDS011;3212;51.460;11.868;2023-04-10T12:46:58;14.00;;;7.60;;
6358;SDS011;3212;51.460;11.868;2023-04-10T12:50:18;11.90;;;7.70;;
6358;SDS011;3212;51.460;11.868;2023-04-10T12:53:42;15.20;;;8.07;;
6358;SDS011;3212;51.460;11.868;2023-04-10T12:57:04;11.63;;;7.37;;
6358;SDS011;3212;51.460;11.868;2023-04-10T13:00:27;9.50;;;6.47;;
6358;SDS011;3212;51.460;11.868;2023-04-10T13:03:49;12.63;;;7.90;;
6358;SDS011;3212;51.460;11.868;2023-04-10T13:07:12;11.67;;;7.60;;
6358;SDS011;3212;51.460;11.868;2023-04-10T13:10:34;14.30;;;7.40;;
6358;SDS011;3212;51.460;11.868;2023-04-10T13:13:56;12.07;;;7.80;;
6358;SDS011;3212;51.460;11.868;2023-04-10T13:17:20;8.73;;;6.90;;
6358;SDS011;3212;51.460;11.868;2023-04-10T13:20:43;13.70;;;8.87;;
6358;SDS011;3212;51.460;11.868;2023-04-10T13:24:06;12.03;;;7.67;;
6358;SDS011;3212;51.460;11.868;2023-04-10T13:27:29;10.50;;;7.20;;
6358;SDS011;3212;51.460;11.868;2023-04-10T13:30:52;11.37;;;7.07;;
6358;SDS011;3212;51.460;11.868;2023-04-10T13:34:14;10.83;;;7.17;;
6358;SDS011;3212;51.460;11.868;2023-04-10T13:37:36;10.50;;;7.00;;
6358;SDS011;3212;51.460;11.868;2023-04-10T13:41:00;13.17;;;8.07;;
6358;SDS011;3212;51.460;11.868;2023-04-10T13:44:22;12.63;;;8.37;;
6358;SDS011;3212;51.460;11.868;2023-04-10T13:47:45;9.73;;;7.50;;
6358;SDS011;3212;51.460;11.868;2023-04-10T13:51:08;10.30;;;7.97;;
6358;SDS011;3212;51.460;11.868;2023-04-10T13:54:30;12.67;;;8.43;;
6358;SDS011;3212;51.460;11.868;2023-04-10T13:57:53;11.87;;;7.83;;
6358;SDS011;3212;51.460;11.868;2023-04-10T14:01:16;10.80;;;7.43;;
6358;SDS011;3212;51.460;11.868;2023-04-10T14:04:38;13.53;;;9.00;;
6358;SDS011;3212;51.460;11.868;2023-04-10T14:08:02;15.40;;;8.67;;
6358;SDS011;3212;51.460;11.868;2023-04-10T14:11:25;12.37;;;8.00;;
6358;SDS011;3212;51.460;11.868;2023-04-10T14:14:47;10.83;;;7.60;;
6358;SDS011;3212;51.460;11.868;2023-04-10T14:18:10;11.10;;;7.83;;
6358;SDS011;3212;51.460;11.868;2023-04-10T14:21:33;10.90;;;7.37;;
6358;SDS011;3212;51.460;11.868;2023-04-10T14:24:55;12.50;;;7.80;;
6358;SDS011;3212;51.460;11.868;2023-04-10T14:28:18;11.37;;;8.13;;
6358;SDS011;3212;51.460;11.868;2023-04-10T14:31:42;11.70;;;8.43;;
6358;SDS011;3212;51.460;11.868;2023-04-10T14:35:05;10.70;;;8.00;;
6358;SDS011;3212;51.460;11.868;2023-04-10T14:38:28;11.90;;;8.03;;
6358;SDS011;3212;51.460;11.868;2023-04-10T14:41:53;12.30;;;8.43;;
6358;SDS011;3212;51.460;11.868;2023-04-10T14:45:15;10.17;;;7.60;;
6358;SDS011;3212;51.460;11.868;2023-04-10T14:48:38;12.00;;;8.00;;
6358;SDS011;3212;51.460;11.868;2023-04-10T14:52:01;10.68;;;7.57;;
6358;SDS011;3212;51.460;11.868;2023-04-10T14:55:24;12.30;;;7.00;;
6358;SDS011;3212;51.460;11.868;2023-04-10T14:58:47;11.13;;;8.00;;
6358;SDS011;3212;51.460;11.868;2023-04-10T15:02:10;10.47;;;8.00;;
6358;SDS011;3212;51.460;11.868;2023-04-10T15:05:32;10.37;;;7.00;;
6358;SDS011;3212;51.460;11.868;2023-04-10T15:08:55;8.70;;;6.70;;
6358;SDS011;3212;51.460;11.868;2023-04-10T15:12:18;10.90;;;7.73;;
6358;SDS011;3212;51.460;11.868;2023-04-10T15:15:40;9.93;;;6.90;;
6358;SDS011;3212;51.460;11.868;2023-04-10T15:19:03;7.80;;;5.63;;
6358;SDS011;3212;51.460;11.868;2023-04-10T15:22:26;5.83;;;4.43;;
6358;SDS011;3212;51.460;11.868;2023-04-10T15:25:49;7.10;;;5.47;;
6358;SDS011;3212;51.460;11.868;2023-04-10T15:29:11;5.57;;;4.57;;
6358;SDS011;3212;51.460;11.868;2023-04-10T15:32:35;6.07;;;4.43;;
6358;SDS011;3212;51.460;11.868;2023-04-10T15:35:57;7.20;;;5.00;;
6358;SDS011;3212;51.460;11.868;2023-04-10T15:39:20;6.33;;;4.70;;
6358;SDS011;3212;51.460;11.868;2023-04-10T15:42:42;6.70;;;4.90;;
6358;SDS011;3212;51.460;11.868;2023-04-10T15:46:05;9.00;;;6.27;;
6358;SDS011;3212;51.460;11.868;2023-04-10T15:49:27;7.57;;;5.40;;
6358;SDS011;3212;51.460;11.868;2023-04-10T15:52:50;6.07;;;4.77;;
6358;SDS011;3212;51.460;11.868;2023-04-10T15:56:12;6.90;;;5.00;;
6358;SDS011;3212;51.460;11.868;2023-04-10T15:59:35;6.83;;;4.90;;
6358;SDS011;3212;51.460;11.868;2023-04-10T16:02:57;10.10;;;5.23;;
6358;SDS011;3212;51.460;11.868;2023-04-10T16:06:20;5.90;;;4.93;;
6358;SDS011;3212;51.460;11.868;2023-04-10T16:09:43;6.93;;;4.97;;
6358;SDS011;3212;51.460;11.868;2023-04-10T16:13:06;9.27;;;5.67;;
6358;SDS011;3212;51.460;11.868;2023-04-10T16:16:28;6.83;;;5.17;;
6358;SDS011;3212;51.460;11.868;2023-04-10T16:19:51;7.67;;;5.80;;
6358;SDS011;3212;51.460;11.868;2023-04-10T16:23:14;8.97;;;6.37;;
6358;SDS011;3212;51.460;11.868;2023-04-10T16:26:36;8.47;;;6.10;;
6358;SDS011;3212;51.460;11.868;2023-04-10T16:29:59;8.60;;;6.30;;
6358;SDS011;3212;51.460;11.868;2023-04-10T16:33:22;8.70;;;5.87;;
6358;SDS011;3212;51.460;11.868;2023-04-10T16:36:44;6.73;;;5.30;;
6358;SDS011;3212;51.460;11.868;2023-04-10T16:40:07;8.00;;;5.03;;
6358;SDS011;3212;51.460;11.868;2023-04-10T16:43:30;8.53;;;5.17;;
6358;SDS011;3212;51.460;11.868;2023-04-10T16:46:52;7.50;;;5.27;;
6358;SDS011;3212;51.460;11.868;2023-04-10T16:50:15;7.90;;;4.70;;
6358;SDS011;3212;51.460;11.868;2023-04-10T16:53:38;8.93;;;5.67;;
6358;SDS011;3212;51.460;11.868;2023-04-10T16:57:00;7.77;;;5.43;;
6358;SDS011;3212;51.460;11.868;2023-04-10T17:00:23;6.73;;;4.97;;
6358;SDS011;3212;51.460;11.868;2023-04-10T17:03:46;6.53;;;5.00;;
6358;SDS011;3212;51.460;11.868;2023-04-10T17:07:08;7.03;;;5.20;;
6358;SDS011;3212;51.460;11.868;2023-04-10T17:10:31;6.33;;;4.80;;
6358;SDS011;3212;51.460;11.868;2023-04-10T17:13:54;6.87;;;4.90;;
6358;SDS011;3212;51.460;11.868;2023-04-10T17:17:16;6.93;;;5.20;;
6358;SDS011;3212;51.460;11.868;2023-04-10T17:20:39;7.40;;;5.00;;
6358;SDS011;3212;51.460;11.868;2023-04-10T17:24:02;7.07;;;4.87;;
6358;SDS011;3212;51.460;11.868;2023-04-10T17:27:25;7.17;;;5.10;;
6358;SDS011;3212;51.460;11.868;2023-04-10T17:30:48;9.10;;;5.60;;
6358;SDS011;3212;51.460;11.868;2023-04-10T17:34:11;8.37;;;5.60;;
6358;SDS011;3212;51.460;11.868;2023-04-10T17:37:33;7.70;;;5.73;;
6358;SDS011;3212;51.460;11.868;2023-04-10T17:40:55;8.17;;;5.30;;
6358;SDS011;3212;51.460;11.868;2023-04-10T17:44:18;8.00;;;5.63;;
6358;SDS011;3212;51.460;11.868;2023-04-10T17:47:41;11.90;;;8.17;;
6358;SDS011;3212;51.460;11.868;2023-04-10T17:51:05;10.97;;;7.33;;
6358;SDS011;3212;51.460;11.868;2023-04-10T17:54:27;8.67;;;5.80;;
6358;SDS011;3212;51.460;11.868;2023-04-10T17:57:51;8.10;;;4.90;;
6358;SDS011;3212;51.460;11.868;2023-04-10T18:01:19;9.37;;;5.30;;
6358;SDS011;3212;51.460;11.868;2023-04-10T18:04:44;7.13;;;4.97;;
6358;SDS011;3212;51.460;11.868;2023-04-10T18:08:07;7.23;;;5.27;;
6358;SDS011;3212;51.460;11.868;2023-04-10T18:11:29;10.33;;;6.00;;
6358;SDS011;3212;51.460;11.868;2023-04-10T18:14:52;8.53;;;4.80;;
6358;SDS011;3212;51.460;11.868;2023-04-10T18:18:15;9.10;;;5.20;;
6358;SDS011;3212;51.460;11.868;2023-04-10T18:21:37;7.60;;;4.70;;
6358;SDS011;3212;51.460;11.868;2023-04-10T18:25:00;7.93;;;5.23;;
6358;SDS011;3212;51.460;11.868;2023-04-10T18:28:22;8.67;;;5.17;;
6358;SDS011;3212;51.460;11.868;2023-04-10T18:31:44;6.12;;;4.32;;
6358;SDS011;3212;51.460;11.868;2023-04-10T18:35:07;6.10;;;4.53;;
6358;SDS011;3212;51.460;11.868;2023-04-10T18:38:30;9.33;;;5.70;;
6358;SDS011;3212;51.460;11.868;2023-04-10T18:41:52;10.23;;;4.90;;
6358;SDS011;3212;51.460;11.868;2023-04-10T18:45:15;8.80;;;5.50;;
6358;SDS011;3212;51.460;11.868;2023-04-10T18:48:40;8.07;;;5.20;;
6358;SDS011;3212;51.460;11.868;2023-04-10T18:52:02;8.03;;;5.33;;
6358;SDS011;3212;51.460;11.868;2023-04-10T18:55:24;7.97;;;5.20;;
6358;SDS011;3212;51.460;11.868;2023-04-10T18:58:47;7.37;;;5.23;;
6358;SDS011;3212;51.460;11.868;2023-04-10T19:02:10;7.53;;;4.40;;
6358;SDS011;3212;51.460;11.868;2023-04-10T19:05:33;6.70;;;5.30;;
6358;SDS011;3212;51.460;11.868;2023-04-10T19:08:56;8.27;;;5.47;;
6358;SDS011;3212;51.460;11.868;2023-04-10T19:12:18;8.97;;;5.37;;
6358;SDS011;3212;51.460;11.868;2023-04-10T19:15:41;8.17;;;5.23;;
6358;SDS011;3212;51.460;11.868;2023-04-10T19:19:04;8.73;;;5.40;;
6358;SDS011;3212;51.460;11.868;2023-04-10T19:22:26;7.20;;;5.30;;
6358;SDS011;3212;51.460;11.868;2023-04-10T19:25:50;9.20;;;5.70;;
6358;SDS011;3212;51.460;11.868;2023-04-10T19:29:12;10.53;;;5.90;;
6358;SDS011;3212;51.460;11.868;2023-04-10T19:32:35;8.60;;;5.63;;
6358;SDS011;3212;51.460;11.868;2023-04-10T19:35:57;9.93;;;5.57;;
6358;SDS011;3212;51.460;11.868;2023-04-10T19:39:19;7.17;;;5.00;;
6358;SDS011;3212;51.460;11.868;2023-04-10T19:42:43;9.90;;;5.40;;
6358;SDS011;3212;51.460;11.868;2023-04-10T19:46:05;8.80;;;6.10;;
6358;SDS011;3212;51.460;11.868;2023-04-10T19:49:31;9.57;;;6.30;;
6358;SDS011;3212;51.460;11.868;2023-04-10T19:52:53;9.27;;;5.47;;
6358;SDS011;3212;51.460;11.868;2023-04-10T19:56:15;8.33;;;5.40;;
6358;SDS011;3212;51.460;11.868;2023-04-10T19:59:38;9.47;;;6.30;;
6358;SDS011;3212;51.460;11.868;2023-04-10T20:03:01;9.20;;;5.93;;
6358;SDS011;3212;51.460;11.868;2023-04-10T20:06:23;9.10;;;5.60;;
6358;SDS011;3212;51.460;11.868;2023-04-10T20:09:46;9.00;;;5.97;;
6358;SDS011;3212;51.460;11.868;2023-04-10T20:13:08;9.43;;;5.60;;
6358;SDS011;3212;51.460;11.868;2023-04-10T20:16:31;8.63;;;5.60;;
6358;SDS011;3212;51.460;11.868;2023-04-10T20:19:53;9.40;;;6.30;;
6358;SDS011;3212;51.460;11.868;2023-04-10T20:23:16;8.80;;;5.70;;
6358;SDS011;3212;51.460;11.868;2023-04-10T20:26:39;7.37;;;5.30;;
6358;SDS011;3212;51.460;11.868;2023-04-10T20:30:01;9.07;;;6.03;;
6358;SDS011;3212;51.460;11.868;2023-04-10T20:33:24;10.30;;;5.53;;
6358;SDS011;3212;51.460;11.868;2023-04-10T20:36:46;9.47;;;6.33;;
6358;SDS011;3212;51.460;11.868;2023-04-10T20:40:09;8.93;;;5.60;;
6358;SDS011;3212;51.460;11.868;2023-04-10T20:43:32;11.07;;;6.17;;
6358;SDS011;3212;51.460;11.868;2023-04-10T20:46:55;8.97;;;5.80;;